Portada
METAR-TAF:

METAR-TAF

Aeroports :

Bangkok, Tailàndia

latitud: 13-54-45N, longitud: 100-36-24E, altitud: 4 m

Observació

L'informe es va fer fa 27 minuts, a les 07:00 UTC
Vent 7 kt del Sud/Sud-Oest, variant entre Sud/Sud-Est i Oest/Sud-Oest
Temperatura 34°C
Humitat 50%
Pressió 1009 hPa
Visibilitat 10 km o més
Núvols disperses a una alçada de 2000 ft

METAR: VTBD 230700Z 20007KT 150V240 9999 SCT020 34/22 Q1009 NOSIG

Hora: 14:27 (07:27 UTC)

Pronòstic

L'informe es va fer fa 2 hores i 27 minuts, a les 05:00 UTC
Pronòstic vàlid del 23 a les 06 UTC al 24 a les 12 UTC
Vent 8 kt del Sud
Visibilitat 10 km o més
Escasses núvols a una alçada de 2000 ft
Evolucionant progressivament
l' 23 a les 22 UTC al 23 a les 24 UTC
Vent 5 kt del Sud-Est
Evolucionant progressivament
l' 24 a les 02 UTC al 24 a les 04 UTC
Vent 8 kt del Sud/Sud-Oest

TAF: VTBD 230500Z 2306/2412 19008KT 9999 FEW020 BECMG 2322/2324 13005KT BECMG 2402/2404 20008KT

Observacions i pronòstics meteorològics de més de 4000 aeroports (METAR i TAF).

Les estacions disponibles són els punts grocs i vermells al mapa.

Posi el ratolí al punt desitjat per veure el nom de l'estació.

Feu clic per veure les observacions i els pronòstics meteorològics.

Per canviar el mapa: feu clic els botons verds amb una creu de color negre per apropar; al botó verd amb un guió per allunyar la imatge; o en les fletxes verdes per a mapes adjacents.


METAR-TAF: